Time;durP1;ratioP1;P1;durP2;ratioP2;P2;SDS_P1;SDS_P2;PMS_P1;PMS_P2;Temp;Humidity;BMP_temperature;BMP_pressure;BME280_temperature;BME280_humidity;BME280_pressure;Samples;Min_cycle;Max_cycle;Signal;HPM_P1;HPM_P2
2022/05/16 00:00:27;;;;;;;10.80;2.90;;;15.50;99.90;;;;;;4867695;29;20072;-91
2022/05/16 00:02:55;;;;;;;12.38;3.25;;;15.60;99.90;;;;;;4867256;29;20147;-91
2022/05/16 00:05:23;;;;;;;9.85;2.75;;;15.60;99.90;;;;;;4867792;29;20048;-90
2022/05/16 00:07:50;;;;;;;9.57;2.95;;;15.50;99.90;;;;;;4883257;29;20067;-90
2022/05/16 00:10:17;;;;;;;11.50;3.58;;;15.70;99.90;;;;;;4883222;29;20055;-90
2022/05/16 00:12:44;;;;;;;13.02;2.63;;;15.80;99.90;;;;;;4867693;29;20056;-90
2022/05/16 00:15:13;;;;;;;7.35;3.17;;;15.70;99.90;;;;;;4867531;29;20056;-91
2022/05/16 00:17:41;;;;;;;10.50;4.53;;;15.90;99.90;;;;;;4883600;29;20048;-90
2022/05/16 00:20:10;;;;;;;5.97;2.97;;;15.60;99.90;;;;;;4882777;29;20498;-91
2022/05/16 00:22:38;;;;;;;9.50;3.47;;;15.80;99.90;;;;;;4885488;29;20044;-91
2022/05/16 00:25:07;;;;;;;9.18;3.20;;;15.70;99.90;;;;;;4889226;29;20044;-91
2022/05/16 00:27:34;;;;;;;7.10;2.00;;;15.80;99.90;;;;;;4891119;29;20139;-91
2022/05/16 00:30:05;;;;;;;6.97;3.05;;;15.70;99.90;;;;;;4875197;29;20398;-90
2022/05/16 00:32:32;;;;;;;12.68;4.43;;;15.70;99.90;;;;;;4884263;29;20048;-89
2022/05/16 00:34:59;;;;;;;14.88;3.58;;;15.40;99.90;;;;;;4867060;29;20762;-91
2022/05/16 00:37:26;;;;;;;4.57;2.25;;;15.50;99.90;;;;;;4867390;29;20048;-90
2022/05/16 00:39:52;;;;;;;11.07;2.50;;;15.60;99.90;;;;;;4867208;29;20048;-90
2022/05/16 00:42:20;;;;;;;7.43;2.50;;;15.60;99.90;;;;;;4882639;29;20053;-90
2022/05/16 00:44:47;;;;;;;9.85;2.47;;;15.60;99.90;;;;;;4898921;29;20484;-92
2022/05/16 00:47:14;;;;;;;7.15;2.63;;;15.60;99.90;;;;;;4866649;29;20165;-91
2022/05/16 00:49:46;;;;;;;11.77;2.67;;;15.60;99.90;;;;;;4883182;29;20044;-92
2022/05/16 00:52:26;;;;;;;9.80;2.75;;;15.60;99.90;;;;;;4883516;29;20044;-91
2022/05/16 00:54:55;;;;;;;3.72;1.63;;;15.80;99.90;;;;;;4898508;29;20048;-91
2022/05/16 00:57:44;;;;;;;10.32;2.58;;;15.60;99.90;;;;;;4866589;29;20052;-91
2022/05/16 01:00:12;;;;;;;6.82;1.73;;;15.70;99.90;;;;;;4866477;29;20069;-91
2022/05/16 01:05:29;;;;;;;7.20;2.15;;;15.70;99.90;;;;;;4881837;29;20048;-89
2022/05/16 01:08:05;;;;;;;8.27;2.58;;;15.60;99.90;;;;;;4866468;29;20055;-90
2022/05/16 01:10:33;;;;;;;9.52;2.85;;;15.50;99.90;;;;;;4867294;29;20052;-91
2022/05/16 01:13:03;;;;;;;7.38;2.80;;;15.40;99.90;;;;;;4881780;29;20151;-89
2022/05/16 01:15:42;;;;;;;8.55;3.97;;;15.50;99.90;;;;;;4881564;29;20160;-90
2022/05/16 01:18:12;;;;;;;10.48;3.20;;;15.20;99.90;;;;;;4882148;29;20503;-90
2022/05/16 01:20:57;;;;;;;11.13;3.22;;;15.20;99.90;;;;;;4866183;29;20533;-90
2022/05/16 01:23:27;;;;;;;10.75;3.75;;;15.40;99.90;;;;;;4882169;29;20532;-89
2022/05/16 01:25:54;;;;;;;7.38;3.00;;;15.30;99.90;;;;;;4866563;29;20053;-88
2022/05/16 01:28:23;;;;;;;6.22;2.20;;;15.40;99.90;;;;;;4899849;29;20057;-92
2022/05/16 01:30:54;;;;;;;10.95;4.00;;;15.30;99.90;;;;;;4866543;29;20467;-90
2022/05/16 01:33:25;;;;;;;13.68;3.72;;;15.30;99.90;;;;;;4866114;29;20136;-89
2022/05/16 01:35:53;;;;;;;8.38;3.15;;;14.90;99.90;;;;;;4881694;29;20513;-89
2022/05/16 01:38:23;;;;;;;11.35;2.80;;;15.00;99.90;;;;;;4898152;29;20058;-90
2022/05/16 01:40:53;;;;;;;9.10;3.50;;;14.90;99.90;;;;;;4898413;29;20052;-90
2022/05/16 01:43:22;;;;;;;9.57;4.13;;;15.20;99.90;;;;;;4885731;29;20061;-90
2022/05/16 01:45:50;;;;;;;9.02;3.35;;;14.90;99.90;;;;;;4869552;29;20509;-90
2022/05/16 01:48:18;;;;;;;8.20;3.05;;;14.90;99.90;;;;;;4885116;29;20434;-90
2022/05/16 01:50:47;;;;;;;8.77;3.17;;;15.10;99.90;;;;;;4884986;29;20051;-91
2022/05/16 01:53:14;;;;;;;6.43;3.25;;;15.20;99.90;;;;;;4884936;29;20506;-90
2022/05/16 01:55:42;;;;;;;7.53;3.20;;;15.20;99.90;;;;;;4885521;29;20056;-91
2022/05/16 01:58:09;;;;;;;5.03;2.00;;;15.10;99.90;;;;;;4869409;29;20460;-90
2022/05/16 02:00:37;;;;;;;7.43;2.90;;;15.20;99.90;;;;;;4869533;29;20052;-90
2022/05/16 02:03:07;;;;;;;11.25;3.13;;;15.00;99.90;;;;;;4869309;29;20056;-90
2022/05/16 02:05:34;;;;;;;15.48;3.63;;;15.30;99.90;;;;;;4884752;29;20044;-92
2022/05/16 02:08:02;;;;;;;9.32;3.38;;;15.00;99.90;;;;;;4870240;29;20052;-90
2022/05/16 02:10:30;;;;;;;7.30;2.75;;;15.10;99.90;;;;;;4901565;29;20065;-89
2022/05/16 02:12:57;;;;;;;9.93;3.70;;;15.20;99.90;;;;;;4902123;29;20133;-90
2022/05/16 02:15:27;;;;;;;5.93;3.00;;;15.10;99.90;;;;;;4887065;29;20052;-90
2022/05/16 02:17:55;;;;;;;10.57;3.53;;;15.10;99.90;;;;;;4886029;29;20103;-91
2022/05/16 02:20:24;;;;;;;8.75;3.20;;;14.90;99.90;;;;;;4870200;29;20048;-91
2022/05/16 02:25:40;;;;;;;9.93;4.20;;;14.90;99.90;;;;;;4901423;29;20510;-89
2022/05/16 02:28:10;;;;;;;8.95;3.78;;;15.10;99.90;;;;;;4869711;29;20090;-91
2022/05/16 02:30:38;;;;;;;8.70;2.97;;;14.90;99.90;;;;;;4884681;29;20057;-90
2022/05/16 02:33:05;;;;;;;7.25;3.75;;;15.10;99.90;;;;;;4884429;29;20056;-90
2022/05/16 02:35:32;;;;;;;8.70;3.35;;;14.90;99.90;;;;;;4868998;29;20079;-91
2022/05/16 02:38:00;;;;;;;11.75;3.20;;;15.10;99.90;;;;;;4868977;29;20059;-90
2022/05/16 02:40:32;;;;;;;6.18;2.50;;;15.00;99.90;;;;;;4884314;29;20139;-89
2022/05/16 02:42:59;;;;;;;9.25;3.25;;;15.10;99.90;;;;;;4868837;29;20139;-90
2022/05/16 02:45:27;;;;;;;6.28;2.60;;;15.20;99.90;;;;;;4900743;29;20080;-89
2022/05/16 02:47:55;;;;;;;4.00;2.55;;;15.10;99.90;;;;;;4868648;29;20087;-90
2022/05/16 02:50:23;;;;;;;9.25;3.08;;;14.90;99.90;;;;;;4884425;29;20040;-90
2022/05/16 02:52:51;;;;;;;6.22;3.53;;;14.90;99.90;;;;;;4867912;29;20052;-92
2022/05/16 02:55:18;;;;;;;9.73;2.65;;;15.00;99.90;;;;;;4884132;29;20131;-89
2022/05/16 02:57:46;;;;;;;10.10;2.90;;;14.90;99.90;;;;;;4868705;29;20076;-91
2022/05/16 03:00:16;;;;;;;4.72;2.58;;;15.00;99.90;;;;;;4883838;29;20041;-91
2022/05/16 03:02:43;;;;;;;8.57;2.78;;;14.90;99.90;;;;;;4868551;29;20052;-91
2022/05/16 03:05:12;;;;;;;10.95;3.20;;;15.00;99.90;;;;;;4868453;29;20061;-90
2022/05/16 03:07:39;;;;;;;12.70;3.25;;;15.10;99.90;;;;;;4884194;29;20088;-89
2022/05/16 03:10:07;;;;;;;10.95;3.00;;;14.90;99.90;;;;;;4883523;29;20563;-89
2022/05/16 03:12:34;;;;;;;12.35;3.78;;;15.00;99.90;;;;;;4884344;29;20053;-89
2022/05/16 03:15:02;;;;;;;5.20;3.55;;;14.80;99.90;;;;;;4900277;29;20466;-89
2022/05/16 03:17:28;;;;;;;5.95;2.67;;;14.80;99.90;;;;;;4868366;29;20048;-89
2022/05/16 03:19:55;;;;;;;9.30;3.42;;;14.90;99.90;;;;;;4900393;29;20080;-90
2022/05/16 03:22:29;;;;;;;5.50;2.70;;;14.80;99.90;;;;;;4869491;29;20143;-90
2022/05/16 03:24:56;;;;;;;6.68;2.00;;;14.90;99.90;;;;;;4867535;29;20041;-91
2022/05/16 03:27:24;;;;;;;8.50;2.15;;;14.80;99.90;;;;;;4883570;29;20491;-90
2022/05/16 03:29:50;;;;;;;9.13;2.63;;;14.80;99.90;;;;;;4883608;29;20495;-90
2022/05/16 03:32:18;;;;;;;13.77;3.67;;;14.80;99.90;;;;;;4868273;29;20464;-91
2022/05/16 03:34:48;;;;;;;12.82;4.15;;;14.80;99.90;;;;;;4867951;29;20112;-90
2022/05/16 03:37:15;;;;;;;7.13;3.17;;;14.90;99.90;;;;;;4883880;29;20143;-91
2022/05/16 03:42:30;;;;;;;7.13;2.78;;;14.80;99.90;;;;;;4883573;29;20056;-90
2022/05/16 03:44:58;;;;;;;8.40;3.35;;;15.00;99.90;;;;;;4863298;29;20396;-90
2022/05/16 03:47:25;;;;;;;13.32;3.63;;;15.10;99.90;;;;;;4864402;29;20149;-90
2022/05/16 03:49:52;;;;;;;7.05;2.70;;;14.90;99.90;;;;;;4861504;29;20051;-92
2022/05/16 03:52:21;;;;;;;6.57;2.58;;;14.80;99.90;;;;;;4862639;29;20080;-91
2022/05/16 03:54:48;;;;;;;8.75;3.30;;;14.70;99.90;;;;;;4864973;29;20415;-91
2022/05/16 03:57:14;;;;;;;10.13;3.53;;;14.60;99.90;;;;;;4864487;29;20044;-91
2022/05/16 03:59:41;;;;;;;10.10;3.53;;;14.70;99.90;;;;;;4865335;29;20049;-90
2022/05/16 04:02:08;;;;;;;9.07;3.42;;;14.90;99.90;;;;;;4864644;29;20056;-91
2022/05/16 04:04:36;;;;;;;7.97;2.97;;;15.10;99.90;;;;;;4865696;29;20483;-89
2022/05/16 04:07:03;;;;;;;8.10;3.03;;;14.80;99.90;;;;;;4869338;29;20045;-89
2022/05/16 04:09:30;;;;;;;7.75;2.67;;;14.70;99.90;;;;;;4880969;29;20072;-90
2022/05/16 04:11:57;;;;;;;12.80;3.40;;;14.70;99.90;;;;;;4888224;29;20096;-90
2022/05/16 04:14:25;;;;;;;11.07;4.10;;;14.90;99.90;;;;;;4867428;29;20174;-87
2022/05/16 04:16:51;;;;;;;8.63;3.13;;;14.80;99.90;;;;;;4899076;29;20502;-86
2022/05/16 04:19:45;;;;;;;7.88;2.90;;;14.70;99.90;;;;;;4899372;29;20422;-87
2022/05/16 04:22:25;;;;;;;11.07;3.57;;;14.70;99.90;;;;;;4899638;29;20082;-91
2022/05/16 04:25:12;;;;;;;7.78;3.40;;;14.70;99.90;;;;;;4867919;29;20041;-93
2022/05/16 04:27:44;;;;;;;9.38;3.97;;;14.60;99.90;;;;;;4881887;29;20049;-90
2022/05/16 04:30:14;;;;;;;7.45;3.90;;;14.50;99.90;;;;;;4882375;29;20048;-92
2022/05/16 04:32:52;;;;;;;12.27;3.90;;;14.60;99.90;;;;;;4868118;29;20056;-91
2022/05/16 04:35:23;;;;;;;8.23;2.72;;;14.50;99.90;;;;;;4882324;29;20045;-92
2022/05/16 04:38:01;;;;;;;12.48;3.60;;;14.50;99.90;;;;;;4882583;29;20072;-91
2022/05/16 04:40:33;;;;;;;13.88;3.67;;;14.60;99.90;;;;;;4882382;29;20044;-92
2022/05/16 04:43:03;;;;;;;13.70;4.22;;;14.60;99.90;;;;;;4882328;29;20049;-91
2022/05/16 04:45:42;;;;;;;11.35;3.88;;;14.50;99.90;;;;;;4883006;29;20051;-91
2022/05/16 04:48:09;;;;;;;10.88;4.63;;;14.50;99.90;;;;;;4882024;29;20044;-89
2022/05/16 04:50:36;;;;;;;9.75;3.50;;;14.60;99.90;;;;;;4898552;29;20049;-90
2022/05/16 04:53:03;;;;;;;17.50;4.30;;;14.60;99.90;;;;;;4866069;29;21073;-89
2022/05/16 04:55:31;;;;;;;6.55;3.05;;;14.70;99.90;;;;;;4881463;29;20099;-89
2022/05/16 04:57:58;;;;;;;9.93;2.92;;;14.70;99.90;;;;;;4866349;29;20057;-89
2022/05/16 05:00:27;;;;;;;9.43;3.55;;;14.80;99.90;;;;;;4881473;29;20498;-89
2022/05/16 05:02:53;;;;;;;12.00;4.68;;;14.80;99.90;;;;;;4881591;29;20056;-88
2022/05/16 05:05:22;;;;;;;7.55;3.35;;;14.80;99.90;;;;;;4866142;29;20148;-88
2022/05/16 05:07:49;;;;;;;11.98;3.40;;;14.90;99.90;;;;;;4866259;29;20041;-89
2022/05/16 05:16:16;;;;;;;6.18;3.38;;;15.00;99.90;;;;;;4881835;29;20105;-89
2022/05/16 05:18:43;;;;;;;10.52;3.13;;;15.00;99.90;;;;;;4885151;29;20049;-89
2022/05/16 05:21:11;;;;;;;10.32;4.15;;;15.10;99.90;;;;;;4869610;29;20471;-89
2022/05/16 05:23:39;;;;;;;7.10;3.50;;;15.10;99.90;;;;;;4885201;29;20044;-89
2022/05/16 05:26:11;;;;;;;6.22;2.70;;;15.20;99.90;;;;;;4885212;29;20040;-89
2022/05/16 05:28:38;;;;;;;8.82;3.58;;;15.20;99.90;;;;;;4869843;29;20084;-89
2022/05/16 05:31:10;;;;;;;6.88;2.97;;;15.10;99.90;;;;;;4885128;29;20487;-89
2022/05/16 05:33:37;;;;;;;7.72;2.95;;;15.20;99.90;;;;;;4902046;29;20056;-88
2022/05/16 05:36:05;;;;;;;8.32;3.25;;;15.20;99.90;;;;;;4901628;29;20053;-88
2022/05/16 05:38:32;;;;;;;12.63;3.85;;;15.20;99.90;;;;;;4869453;29;20562;-89
2022/05/16 05:40:59;;;;;;;6.25;3.85;;;15.20;99.90;;;;;;4885132;29;20047;-88
2022/05/16 05:43:25;;;;;;;9.48;3.00;;;15.20;99.90;;;;;;4869358;29;20143;-89
2022/05/16 05:45:52;;;;;;;9.55;3.88;;;15.20;99.90;;;;;;4884658;29;20528;-88
2022/05/16 05:48:23;;;;;;;9.38;3.30;;;15.30;99.90;;;;;;4884445;29;20104;-88
2022/05/16 05:50:51;;;;;;;9.98;4.28;;;15.30;99.90;;;;;;4869198;29;20482;-89
2022/05/16 05:53:19;;;;;;;6.68;3.08;;;15.40;99.90;;;;;;4884371;29;20513;-89
2022/05/16 05:55:47;;;;;;;6.65;3.25;;;15.40;99.90;;;;;;4884457;29;20065;-90
2022/05/16 05:58:15;;;;;;;12.20;3.28;;;15.50;99.90;;;;;;4901350;29;20055;-89
2022/05/16 06:00:43;;;;;;;7.63;4.00;;;15.50;99.90;;;;;;4884142;29;20139;-89
2022/05/16 06:03:10;;;;;;;6.03;3.42;;;15.60;99.90;;;;;;4884170;29;20045;-90
2022/05/16 06:05:38;;;;;;;7.57;3.20;;;15.60;99.90;;;;;;4901117;29;20037;-89
2022/05/16 06:08:05;;;;;;;9.70;3.72;;;15.80;99.90;;;;;;4884551;29;20041;-89
2022/05/16 06:10:33;;;;;;;6.15;3.20;;;15.80;99.90;;;;;;4884317;29;20088;-89
2022/05/16 06:13:01;;;;;;;6.55;3.33;;;15.90;99.90;;;;;;4884073;29;20072;-89
2022/05/16 06:15:28;;;;;;;9.43;3.05;;;16.00;99.90;;;;;;4884072;29;20040;-90
2022/05/16 06:17:55;;;;;;;10.05;3.97;;;16.00;99.90;;;;;;4900975;29;20037;-89
2022/05/16 06:20:21;;;;;;;13.65;4.60;;;16.00;99.90;;;;;;4901132;29;20044;-89
2022/05/16 06:22:49;;;;;;;10.23;3.63;;;16.10;99.90;;;;;;4884631;29;20491;-89
2022/05/16 06:25:33;;;;;;;12.52;3.60;;;16.20;99.90;;;;;;4884515;29;20059;-89
2022/05/16 06:28:05;;;;;;;13.57;3.80;;;16.20;99.90;;;;;;4868460;29;20072;-89
2022/05/16 06:30:35;;;;;;;12.38;4.43;;;16.20;99.90;;;;;;4883946;29;20053;-90
2022/05/16 06:33:03;;;;;;;10.60;3.45;;;16.30;99.90;;;;;;4867966;29;20059;-89
2022/05/16 06:35:30;;;;;;;6.28;3.47;;;16.30;99.90;;;;;;4883975;29;20067;-88
2022/05/16 06:38:04;;;;;;;6.32;4.13;;;16.20;99.90;;;;;;4883765;29;20059;-88
2022/05/16 06:40:32;;;;;;;13.02;4.78;;;16.30;99.90;;;;;;4883899;29;20076;-88
2022/05/16 06:42:59;;;;;;;11.70;5.38;;;16.30;99.90;;;;;;4883638;29;20045;-88
2022/05/16 06:45:26;;;;;;;4.82;2.92;;;16.50;99.90;;;;;;4868646;29;20049;-89
2022/05/16 06:47:53;;;;;;;12.75;5.00;;;16.50;99.90;;;;;;4883283;29;20049;-88
2022/05/16 06:50:20;;;;;;;15.55;4.50;;;16.50;99.90;;;;;;4883674;29;20056;-88
2022/05/16 06:52:47;;;;;;;7.97;3.13;;;16.60;99.90;;;;;;4883360;29;20506;-89
2022/05/16 06:55:15;;;;;;;11.05;4.28;;;16.60;99.90;;;;;;4884056;29;20052;-89
2022/05/16 06:57:43;;;;;;;9.60;4.03;;;16.70;99.90;;;;;;4883490;29;20056;-89
2022/05/16 07:00:16;;;;;;;10.80;4.28;;;16.80;99.90;;;;;;4900980;29;20055;-88
2022/05/16 07:02:43;;;;;;;8.82;3.92;;;16.80;99.90;;;;;;4883103;29;20104;-89
2022/05/16 07:05:31;;;;;;;14.07;4.18;;;16.80;99.90;;;;;;4870389;29;20139;-89
2022/05/16 07:07:59;;;;;;;9.77;3.67;;;16.80;99.90;;;;;;4883220;29;20128;-89
2022/05/16 07:10:26;;;;;;;10.23;3.80;;;16.80;99.90;;;;;;4900110;29;20044;-88
2022/05/16 07:12:54;;;;;;;8.15;4.00;;;17.00;99.90;;;;;;4883075;29;20080;-89
2022/05/16 07:15:21;;;;;;;10.30;4.10;;;17.00;99.90;;;;;;4883173;29;20056;-89
2022/05/16 07:17:48;;;;;;;9.73;4.20;;;17.00;99.90;;;;;;4867666;29;20570;-88
2022/05/16 07:20:15;;;;;;;7.65;3.40;;;17.10;99.90;;;;;;4867906;29;20048;-88
2022/05/16 07:22:45;;;;;;;12.43;4.50;;;17.10;99.90;;;;;;4899126;29;20049;-89
2022/05/16 07:25:14;;;;;;;9.00;4.35;;;17.00;99.90;;;;;;4883471;29;20052;-88
2022/05/16 07:27:57;;;;;;;10.50;3.97;;;17.10;99.90;;;;;;4882911;29;20068;-89
2022/05/16 07:30:25;;;;;;;9.77;3.90;;;17.00;99.90;;;;;;4899757;29;20068;-89
2022/05/16 07:32:54;;;;;;;9.30;3.70;;;17.00;99.90;;;;;;4898884;29;20075;-88
2022/05/16 07:35:28;;;;;;;12.38;3.97;;;17.10;99.90;;;;;;4899591;29;20095;-89
2022/05/16 07:37:55;;;;;;;13.00;3.83;;;17.30;99.90;;;;;;4899405;29;20528;-88
2022/05/16 07:40:29;;;;;;;8.90;4.05;;;17.40;98.10;;;;;;4899565;29;20131;-89
2022/05/16 07:42:56;;;;;;;11.32;4.22;;;17.50;94.70;;;;;;4882867;29;20049;-89
2022/05/16 07:45:24;;;;;;;13.20;3.45;;;17.70;99.50;;;;;;4876007;29;20041;-89
2022/05/16 07:47:51;;;;;;;10.20;4.35;;;18.00;95.30;;;;;;4882381;29;20056;-88
2022/05/16 07:50:23;;;;;;;9.18;4.97;;;18.20;94.40;;;;;;4867458;29;20056;-88
2022/05/16 07:52:50;;;;;;;9.02;4.15;;;18.20;92.40;;;;;;4865312;29;20045;-88
2022/05/16 07:55:23;;;;;;;6.53;4.43;;;18.30;87.30;;;;;;4881288;29;20045;-89
2022/05/16 07:57:50;;;;;;;14.85;4.43;;;18.40;69.10;;;;;;4880348;29;20128;-88
2022/05/16 08:00:23;;;;;;;11.93;4.25;;;18.40;63.00;;;;;;4863645;29;20057;-89
2022/05/16 08:02:51;;;;;;;14.88;4.65;;;18.60;64.90;;;;;;4863402;29;20053;-89
2022/05/16 08:05:19;;;;;;;7.22;4.00;;;18.60;47.00;;;;;;4880633;29;20108;-88
2022/05/16 08:10:34;;;;;;;14.95;4.60;;;18.60;46.40;;;;;;4863689;29;20050;-89
2022/05/16 08:13:06;;;;;;;7.05;3.80;;;18.90;25.60;;;;;;4863159;29;20124;-88
2022/05/16 08:15:34;;;;;;;9.45;4.60;;;18.80;19.70;;;;;;4863395;29;20053;-90
2022/05/16 08:18:02;;;;;;;13.88;4.55;;;18.80;15.20;;;;;;4863065;29;20059;-88
2022/05/16 08:20:30;;;;;;;8.57;3.47;;;18.90;10.80;;;;;;4863387;29;20571;-88
2022/05/16 08:22:58;;;;;;;10.70;3.25;;;18.90;7.80;;;;;;4879733;29;20071;-88
2022/05/16 08:25:25;;;;;;;12.07;3.97;;;18.90;13.90;;;;;;4863620;29;20102;-89
2022/05/16 08:27:52;;;;;;;9.52;4.15;;;19.00;10.20;;;;;;4863356;29;20041;-89
2022/05/16 08:30:22;;;;;;;18.67;5.30;;;19.00;1.90;;;;;;4863262;29;20173;-88
2022/05/16 08:32:50;;;;;;;10.88;4.38;;;19.10;1.00;;;;;;4879904;29;20079;-89
2022/05/16 08:35:19;;;;;;;6.70;3.67;;;19.10;1.00;;;;;;4863218;29;20570;-89
2022/05/16 08:40:41;;;;;;;10.02;4.00;;;19.30;1.00;;;;;;4850348;29;20135;-89
2022/05/16 08:43:21;;;;;;;18.33;4.90;;;19.40;1.00;;;;;;4862524;29;20415;-89
2022/05/16 08:46:02;;;;;;;8.80;4.05;;;19.50;1.00;;;;;;4863554;29;20049;-90
2022/05/16 08:48:36;;;;;;;8.77;4.45;;;19.40;1.00;;;;;;4862696;29;20496;-88
2022/05/16 08:51:19;;;;;;;8.63;4.18;;;19.50;1.00;;;;;;4864086;29;20056;-88
2022/05/16 08:53:53;;;;;;;10.18;3.58;;;19.50;1.00;;;;;;4883471;29;20384;-89
2022/05/16 08:56:28;;;;;;;14.77;4.32;;;19.50;1.00;;;;;;4867403;29;20041;-89
2022/05/16 08:58:59;;;;;;;7.32;4.03;;;19.60;1.00;;;;;;4868072;29;20045;-89
2022/05/16 09:01:32;;;;;;;11.25;4.50;;;19.70;1.00;;;;;;4877623;29;20053;-89
2022/05/16 09:04:07;;;;;;;9.95;4.28;;;19.80;1.00;;;;;;4869428;29;20082;-89
2022/05/16 09:06:36;;;;;;;9.40;4.80;;;20.00;1.00;;;;;;4867220;29;20045;-89
2022/05/16 09:09:14;;;;;;;12.45;4.45;;;20.10;1.00;;;;;;4866800;29;20049;-88
2022/05/16 09:12:07;;;;;;;12.43;4.63;;;20.10;1.00;;;;;;4866774;29;20140;-89
2022/05/16 09:14:56;;;;;;;8.48;4.97;;;20.30;1.00;;;;;;4883274;29;20055;-89
2022/05/16 09:17:32;;;;;;;8.00;3.63;;;20.40;1.00;;;;;;4866520;29;20136;-89
2022/05/16 09:19:59;;;;;;;12.18;5.20;;;20.50;1.00;;;;;;4866733;29;20109;-89
2022/05/16 09:22:38;;;;;;;14.38;5.40;;;20.50;1.00;;;;;;4866582;29;20060;-88
2022/05/16 09:25:21;;;;;;;9.18;4.35;;;20.40;1.00;;;;;;4882802;29;20141;-88
2022/05/16 09:30:48;;;;;;;11.60;4.60;;;20.70;1.00;;;;;;4882943;29;20278;-89
2022/05/16 09:33:20;;;;;;;10.45;5.60;;;20.80;1.00;;;;;;4883048;29;20133;-88
2022/05/16 09:36:07;;;;;;;11.93;4.53;;;20.90;1.00;;;;;;4883191;29;20136;-89
2022/05/16 09:38:34;;;;;;;9.40;4.72;;;20.80;1.00;;;;;;4867594;29;20141;-88
2022/05/16 09:41:01;;;;;;;12.77;4.40;;;20.90;1.00;;;;;;4851399;29;20059;-90
2022/05/16 09:43:41;;;;;;;9.05;4.65;;;21.00;1.00;;;;;;4866110;29;20048;-89
2022/05/16 09:46:29;;;;;;;14.07;5.93;;;21.20;1.00;;;;;;4850920;29;20076;-89
2022/05/16 09:49:05;;;;;;;11.70;5.53;;;21.40;1.00;;;;;;4882587;29;20049;-89
2022/05/16 09:51:51;;;;;;;11.35;5.50;;;21.60;1.00;;;;;;4850843;29;20076;-89
2022/05/16 09:54:38;;;;;;;10.60;4.72;;;21.70;1.00;;;;;;4882492;29;20045;-89
2022/05/16 09:57:16;;;;;;;10.65;4.85;;;21.60;1.00;;;;;;4882577;29;20049;-90
2022/05/16 09:59:51;;;;;;;13.25;5.60;;;21.90;1.00;;;;;;4882488;29;20109;-89
2022/05/16 10:02:30;;;;;;;10.90;4.57;;;22.20;1.00;;;;;;4881828;29;20503;-88
2022/05/16 10:05:20;;;;;;;10.57;4.32;;;22.10;1.00;;;;;;4882083;29;20101;-89
2022/05/16 10:07:49;;;;;;;11.43;6.57;;;22.30;1.00;;;;;;4865721;29;20037;-89
2022/05/16 10:10:21;;;;;;;12.88;4.30;;;22.00;1.00;;;;;;4865729;29;20055;-89
2022/05/16 10:12:51;;;;;;;5.65;3.75;;;21.90;1.00;;;;;;4865198;29;20053;-89
2022/05/16 10:15:19;;;;;;;9.00;4.38;;;21.80;1.00;;;;;;4865139;29;20132;-90
2022/05/16 10:17:49;;;;;;;11.80;5.03;;;21.80;1.00;;;;;;4865344;29;20056;-88
2022/05/16 10:20:32;;;;;;;14.00;4.65;;;21.90;1.00;;;;;;4865205;29;20053;-89
2022/05/16 10:23:06;;;;;;;8.25;5.22;;;22.00;1.00;;;;;;4864927;29;20176;-89
2022/05/16 10:25:43;;;;;;;9.27;4.63;;;22.00;1.00;;;;;;4866152;29;20101;-89
2022/05/16 10:28:24;;;;;;;10.30;6.27;;;21.80;1.00;;;;;;4881875;29;20041;-89
2022/05/16 10:33:40;;;;;;;11.35;4.82;;;22.00;1.00;;;;;;4881715;29;20053;-89
2022/05/16 10:36:35;;;;;;;13.82;5.93;;;21.90;1.00;;;;;;4865105;29;20124;-89
2022/05/16 10:39:25;;;;;;;14.60;6.90;;;21.70;1.00;;;;;;4863155;29;20586;-89
2022/05/16 10:42:07;;;;;;;10.77;6.95;;;21.70;1.00;;;;;;4864963;29;20060;-90
2022/05/16 10:44:48;;;;;;;10.25;7.60;;;21.70;1.00;;;;;;4881505;29;20045;-90
2022/05/16 10:47:30;;;;;;;8.52;5.78;;;21.70;1.00;;;;;;4881518;29;20095;-89
2022/05/16 10:50:20;;;;;;;14.65;8.05;;;21.60;1.00;;;;;;4864652;29;20083;-89
2022/05/16 10:52:59;;;;;;;12.82;6.70;;;21.60;1.00;;;;;;4864504;29;20056;-90
2022/05/16 10:55:39;;;;;;;10.73;6.18;;;21.60;1.00;;;;;;4882053;29;20137;-89
2022/05/16 10:58:23;;;;;;;16.60;6.53;;;21.50;1.00;;;;;;4864788;29;20116;-89
2022/05/16 11:01:11;;;;;;;14.77;6.95;;;21.50;1.00;;;;;;4865070;29;20053;-90
2022/05/16 11:04:13;;;;;;;13.10;6.28;;;21.50;1.00;;;;;;4864995;29;20049;-89
2022/05/16 11:06:58;;;;;;;10.32;5.55;;;21.60;1.00;;;;;;4864822;29;20045;-90
2022/05/16 11:09:37;;;;;;;9.25;4.50;;;21.60;1.00;;;;;;4864909;29;20045;-90
2022/05/16 11:12:16;;;;;;;8.27;6.22;;;21.70;1.00;;;;;;4865246;29;20411;-92
2022/05/16 11:15:18;;;;;;;9.10;5.80;;;21.70;1.00;;;;;;4881472;29;20140;-90
2022/05/16 11:18:01;;;;;;;8.98;5.43;;;21.70;1.00;;;;;;4874906;29;20064;-88
2022/05/16 11:20:43;;;;;;;7.97;5.38;;;21.70;1.00;;;;;;4876412;29;20049;-90
2022/05/16 11:23:32;;;;;;;11.90;6.05;;;21.70;1.00;;;;;;4881734;29;20049;-90
2022/05/16 11:26:11;;;;;;;12.82;6.80;;;21.80;1.00;;;;;;4881411;29;20068;-91
2022/05/16 11:31:57;;;;;;;9.05;6.13;;;21.80;1.00;;;;;;4864333;29;20056;-91
2022/05/16 11:34:48;;;;;;;8.82;4.50;;;21.80;1.00;;;;;;4880695;29;20133;-89
2022/05/16 11:37:30;;;;;;;9.43;4.75;;;21.90;1.00;;;;;;4863923;29;20072;-91
2022/05/16 11:40:06;;;;;;;8.93;5.22;;;21.90;1.00;;;;;;4863981;29;20491;-90
2022/05/16 11:43:11;;;;;;;13.25;5.88;;;21.90;1.00;;;;;;4864140;29;20063;-89
2022/05/16 11:46:23;;;;;;;9.55;4.90;;;22.00;1.00;;;;;;4858608;29;20049;-89
2022/05/16 11:49:14;;;;;;;9.43;5.95;;;22.00;1.00;;;;;;4846992;29;20064;-89
2022/05/16 11:52:24;;;;;;;12.18;5.47;;;22.10;1.00;;;;;;4866521;29;20045;-90
2022/05/16 11:55:01;;;;;;;7.30;3.35;;;22.00;1.00;;;;;;4848217;29;20049;-90
2022/05/16 12:02:59;;;;;;;9.80;4.05;;;21.80;1.00;;;;;;4880627;29;20080;-88
2022/05/16 12:05:40;;;;;;;14.05;4.80;;;21.80;1.00;;;;;;4863758;29;20049;-90
2022/05/16 12:08:16;;;;;;;6.07;3.72;;;21.80;1.00;;;;;;4863673;29;20076;-91
2022/05/16 12:11:01;;;;;;;14.98;3.88;;;21.90;1.00;;;;;;4880137;29;20066;-89
2022/05/16 12:13:34;;;;;;;10.80;4.25;;;21.90;1.00;;;;;;4848204;29;20053;-92
2022/05/16 12:16:15;;;;;;;7.05;3.67;;;21.90;1.00;;;;;;4863624;29;20487;-89
2022/05/16 12:18:45;;;;;;;7.88;4.28;;;22.00;1.00;;;;;;4864312;29;20145;-90
2022/05/16 12:21:18;;;;;;;6.63;4.15;;;22.00;1.00;;;;;;4864325;29;20061;-90
2022/05/16 12:23:47;;;;;;;8.50;4.23;;;21.90;1.00;;;;;;4864091;29;20049;-91
2022/05/16 12:26:44;;;;;;;16.15;4.38;;;21.90;1.00;;;;;;4864039;29;20280;-91
2022/05/16 12:29:11;;;;;;;11.13;4.75;;;22.00;1.00;;;;;;4855789;29;20068;-90
2022/05/16 12:31:44;;;;;;;7.45;4.15;;;22.00;1.00;;;;;;4862957;29;20041;-90
2022/05/16 12:34:13;;;;;;;4.40;2.40;;;22.00;1.00;;;;;;4862950;29;20419;-90
2022/05/16 12:36:41;;;;;;;10.27;4.63;;;22.10;1.00;;;;;;4879620;29;20052;-89
2022/05/16 12:39:18;;;;;;;8.32;4.38;;;21.90;1.00;;;;;;4863071;29;20128;-90
2022/05/16 12:42:12;;;;;;;9.98;4.03;;;21.90;1.00;;;;;;4879789;29;20131;-90
2022/05/16 12:44:53;;;;;;;4.25;2.90;;;21.90;1.00;;;;;;4862685;29;20053;-90
2022/05/16 12:47:45;;;;;;;11.48;3.63;;;21.90;1.00;;;;;;4879555;29;20073;-90
2022/05/16 12:50:38;;;;;;;6.07;3.72;;;22.00;1.00;;;;;;4879704;29;20448;-90
2022/05/16 12:53:30;;;;;;;11.13;3.83;;;21.90;1.00;;;;;;4862612;29;20562;-90
2022/05/16 12:56:08;;;;;;;9.65;4.45;;;22.00;1.00;;;;;;4862811;29;20182;-89
2022/05/16 12:59:09;;;;;;;11.45;4.40;;;21.90;1.00;;;;;;4862655;29;20049;-89
2022/05/16 13:01:53;;;;;;;11.75;4.30;;;21.90;1.00;;;;;;4862552;29;20041;-90
2022/05/16 13:04:41;;;;;;;13.48;5.00;;;21.70;1.00;;;;;;4862135;29;20506;-89
2022/05/16 13:07:19;;;;;;;6.80;3.35;;;21.60;1.00;;;;;;4862688;29;20041;-90
2022/05/16 13:09:57;;;;;;;18.08;5.15;;;21.70;1.00;;;;;;4862177;29;20550;-91
2022/05/16 13:12:48;;;;;;;13.45;5.53;;;21.70;1.00;;;;;;4862705;29;20128;-90
2022/05/16 13:15:33;;;;;;;12.35;3.88;;;21.70;1.00;;;;;;4862261;29;20065;-90
2022/05/16 13:18:01;;;;;;;9.50;4.50;;;21.70;1.00;;;;;;4862846;29;20041;-89
2022/05/16 13:20:34;;;;;;;12.40;4.45;;;21.90;1.00;;;;;;4862276;29;20041;-90
2022/05/16 13:23:01;;;;;;;;;;;21.70;1.00;;;;;;4862876;29;20073;-89
2022/05/16 13:25:30;;;;;;;20.67;4.43;;;21.60;1.00;;;;;;4862214;29;19959;-89
2022/05/16 13:30:46;;;;;;;12.70;5.03;;;21.60;1.00;;;;;;4878905;29;20141;-90
2022/05/16 13:33:41;;;;;;;19.98;6.80;;;21.50;1.00;;;;;;4862346;29;20063;-90
2022/05/16 13:36:21;;;;;;;18.80;6.13;;;21.40;1.00;;;;;;4861372;29;20065;-89
2022/05/16 13:39:00;;;;;;;14.82;4.15;;;21.50;1.00;;;;;;4865992;29;20459;-91
2022/05/16 13:41:29;;;;;;;20.75;6.00;;;21.50;1.00;;;;;;4866226;29;20049;-91
2022/05/16 13:43:59;;;;;;;12.88;4.20;;;21.40;1.00;;;;;;4882657;29;20088;-89
2022/05/16 13:46:33;;;;;;;16.30;6.10;;;21.50;1.00;;;;;;4865694;29;20097;-89
2022/05/16 13:49:14;;;;;;;19.67;5.05;;;21.60;1.00;;;;;;4851157;29;20407;-89
2022/05/16 13:51:50;;;;;;;22.50;5.97;;;21.70;1.00;;;;;;4893012;29;20124;-87